| time (UTC) | temp C | wind direction | speed KPH | gust KPH | rain 1hr cm | rain 24hr cm | rain mn cm | humidity % | barometer mb |
| 20260906200016 | 30 | 126 | 11.3 | 24.1 | 0.00 | 0.53 | 0.53 | 58 | 1016.7 |
| 20260906194522 | 30 | 132 | 14.5 | 25.7 | 0.00 | 0.53 | 0.53 | 55 | 1016.8 |
| 20260906193027 | 30 | 157 | 9.7 | 20.9 | 0.00 | 0.53 | 0.53 | 55 | 1017.2 |
| 20260906191528 | 30 | 134 | 11.3 | 19.3 | 0.00 | 0.53 | 0.53 | 58 | 1017.2 |
| 20260906190031 | 29 | 144 | 11.3 | 17.7 | 0.00 | 0.53 | 0.53 | 56 | 1017.5 |
| 20260906184518 | 28 | 58 | 4.8 | 9.7 | 0.00 | 0.53 | 0.53 | 55 | 1017.3 |
| 20260906183020 | 29 | 96 | 8.0 | 14.5 | 0.00 | 0.53 | 0.53 | 56 | 1017.6 |
| 20260906181530 | 28 | 143 | 3.2 | 16.1 | 0.00 | 0.53 | 0.53 | 57 | 1017.8 |
| 20260906180043 | 28 | 144 | 1.6 | 14.5 | 0.00 | 0.53 | 0.53 | 56 | 1018.0 |
| 20260906174547 | 28 | 140 | 6.4 | 14.5 | 0.00 | 0.53 | 0.53 | 58 | 1018.2 |
| 20260906173018 | 28 | 150 | 6.4 | 12.9 | 0.00 | 0.53 | 0.53 | 59 | 1018.3 |
| 20260906171527 | 27 | 234 | 12.9 | 20.9 | 0.00 | 0.53 | 0.53 | 58 | 1018.3 |
| 20260906170028 | 27 | 196 | 12.9 | 25.7 | 0.00 | 0.53 | 0.53 | 60 | 1018.3 |
| 20260906164532 | 27 | 224 | 12.9 | 27.4 | 0.00 | 0.53 | 0.53 | 60 | 1018.1 |
| 20260906163032 | 26 | 211 | 11.3 | 27.4 | 0.00 | 0.53 | 0.53 | 63 | 1018.0 |
| 20260906161525 | 26 | 185 | 17.7 | 30.6 | 0.00 | 0.53 | 0.53 | 60 | 1017.9 |
| 20260906160033 | 26 | 186 | 16.1 | 35.4 | 0.00 | 0.53 | 0.53 | 63 | 1017.9 |
| 20260906154534 | 25 | 178 | 19.3 | 37.0 | 0.00 | 0.53 | 0.53 | 65 | 1017.6 |
| 20260906153030 | 25 | 202 | 14.5 | 37.0 | 0.00 | 0.53 | 0.53 | 66 | 1017.5 |
| 20260906151520 | 25 | 157 | 16.1 | 33.8 | 0.00 | 0.53 | 0.53 | 67 | 1017.3 |
| 20260906150026 | 25 | 169 | 19.3 | 35.4 | 0.00 | 0.53 | 0.53 | 66 | 1017.2 |
| 20260906144508 | 23 | 169 | 17.7 | 37.0 | 0.00 | 0.53 | 0.53 | 69 | 1017.4 |
| 20260906143017 | 23 | 148 | 20.9 | 37.0 | 0.00 | 0.53 | 0.53 | 69 | 1017.5 |
| 20260906141519 | 22 | 148 | 19.3 | 35.4 | 0.00 | 0.53 | 0.53 | 72 | 1017.4 |
| 20260906140026 | 22 | 174 | 17.7 | 32.2 | 0.00 | 0.53 | 0.53 | 73 | 1017.1 |
| 20260906134530 | 22 | 133 | 20.9 | 35.4 | 0.00 | 0.53 | 0.53 | 74 | 1017.0 |
| 20260906133021 | 21 | 149 | 16.1 | 30.6 | 0.00 | 0.53 | 0.53 | 75 | 1017.2 |
| 20260906131518 | 21 | 159 | 14.5 | 33.8 | 0.00 | 0.53 | 0.53 | 74 | 1017.3 |
| 20260906130020 | 21 | 169 | 9.7 | 27.4 | 0.00 | 0.53 | 0.53 | 75 | 1017.3 |
| 20260906124526 | 21 | 143 | 6.4 | 14.5 | 0.00 | 0.53 | 0.53 | 76 | 1017.0 |
| 20260906123012 | 21 | 159 | 6.4 | 16.1 | 0.00 | 0.53 | 0.53 | 78 | 1017.0 |
| 20260906121503 | 21 | 139 | 12.9 | 20.9 | 0.13 | 0.53 | 0.53 | 77 | 1016.7 |
| 20260906120004 | 21 | 198 | 17.7 | 29.0 | 0.23 | 0.53 | 0.53 | 77 | 1016.6 |
| 20260906114503 | 20 | 138 | 16.1 | 29.0 | 0.30 | 0.53 | 0.53 | 82 | 1016.0 |
| 20260906113004 | 20 | 138 | 20.9 | 48.3 | 0.36 | 0.53 | 0.53 | 81 | 1015.6 |
| 20260906111505 | 18 | 120 | 19.3 | 25.7 | 0.30 | 0.41 | 0.41 | 87 | 1017.5 |
| 20260906110005 | 19 | 207 | 6.4 | 19.3 | 0.23 | 0.30 | 0.30 | 87 | 1019.1 |
| 20260906104503 | 18 | 245 | 11.3 | 17.7 | 0.18 | 0.23 | 0.23 | 88 | 1018.5 |
| 20260906103003 | 18 | 277 | 12.9 | 22.5 | 0.13 | 0.18 | 0.18 | 88 | 1018.7 |
| 20260906101514 | 18 | 266 | 17.7 | 30.6 | 0.05 | 0.10 | 0.10 | 88 | 1018.3 |
| 20260906100007 | 18 | 262 | 16.1 | 27.4 | 0.08 | 0.08 | 0.08 | 87 | 1018.3 |
| 20260906094509 | 19 | 248 | 17.7 | 27.4 | 0.05 | 0.05 | 0.05 | 87 | 1018.0 |
| 20260906093004 | 19 | 271 | 12.9 | 22.5 | 0.05 | 0.05 | 0.05 | 88 | 1017.8 |
| 20260906091503 | 19 | 257 | 14.5 | 25.7 | 0.05 | 0.05 | 0.05 | 86 | 1018.0 |
| 20260906090020 | 21 | 257 | 17.7 | 33.8 | 0.00 | 0.00 | 0.00 | 80 | 1018.6 |
| 20260906084507 | 22 | 265 | 8.0 | 14.5 | 0.00 | 0.00 | 0.00 | 91 | 1018.2 |
| 20260906083007 | 22 | 133 | 0.0 | 1.6 | 0.00 | 0.00 | 0.00 | 90 | 1017.0 |
| 20260906081508 | 22 | 133 | 0.0 | 4.8 | 0.00 | 0.00 | 0.00 | 90 | 1016.7 |
| 20260906080008 | 23 | 11 | 1.6 | 3.2 | 0.00 | 0.00 | 0.00 | 88 | 1017.0 |
| 20260906074512 | 23 | 331 | 3.2 | 8.0 | 0.00 | 0.00 | 0.00 | 87 | 1017.3 |
| 20260906073013 | 23 | 248 | 3.2 | 11.3 | 0.00 | 0.00 | 0.00 | 86 | 1017.0 |
| 20260906071512 | 24 | 208 | 4.8 | 11.3 | 0.00 | 0.00 | 0.00 | 82 | 1016.7 |
| 20260906070012 | 25 | 186 | 8.0 | 16.1 | 0.00 | 0.00 | 0.00 | 80 | 1016.4 |
| 20260906064511 | 25 | 173 | 6.4 | 12.9 | 0.00 | 0.00 | 0.00 | 80 | 1016.3 |
| 20260906063028 | 25 | 146 | 9.7 | 19.3 | 0.00 | 0.00 | 0.00 | 81 | 1016.0 |
| 20260906061517 | 25 | 131 | 11.3 | 19.3 | 0.00 | 0.00 | 0.00 | 81 | 1016.2 |
| 20260906060016 | 25 | 115 | 12.9 | 17.7 | 0.00 | 0.00 | 0.00 | 83 | 1016.3 |
| 20260906054519 | 25 | 117 | 8.0 | 16.1 | 0.00 | 0.00 | 0.00 | 83 | 1016.2 |
| 20260906053017 | 24 | 128 | 11.3 | 16.1 | 0.00 | 0.00 | 0.00 | 85 | 1016.0 |
| 20260906051534 | 24 | 92 | 8.0 | 12.9 | 0.00 | 0.00 | 0.00 | 86 | 1016.2 |
| 20260906050023 | 24 | 116 | 0.0 | 9.7 | 0.00 | 0.00 | 0.00 | 85 | 1016.5 |
| 20260906044519 | 24 | 76 | 3.2 | 11.3 | 0.00 | 0.00 | 0.00 | 86 | 1016.7 |
| 20260906043023 | 24 | 69 | 3.2 | 6.4 | 0.00 | 0.00 | 0.00 | 87 | 1016.8 |
| 20260906041520 | 23 | 108 | 0.0 | 0.0 | 0.00 | 0.00 | 0.00 | 87 | 1016.6 |
| 20260906040032 | 23 | 108 | 0.0 | 0.0 | 0.00 | 0.00 | 0.00 | 86 | 1016.5 |
| 20260906034532 | 24 | 108 | 0.0 | 0.0 | 0.00 | 0.00 | 0.00 | 85 | 1016.5 |
| 20260906033023 | 24 | 108 | 0.0 | 0.0 | 0.00 | 0.00 | 0.00 | 85 | 1016.6 |
| 20260906031536 | 24 | 108 | 0.0 | 1.6 | 0.00 | 0.00 | 0.00 | 86 | 1016.4 |
| 20260906030020 | 23 | 108 | 0.0 | 0.0 | 0.00 | 0.00 | 0.00 | 85 | 1016.4 |
| 20260906024526 | 24 | 108 | 0.0 | 0.0 | 0.00 | 0.00 | 0.00 | 84 | 1016.0 |
| 20260906023027 | 25 | 108 | 0.0 | 3.2 | 0.00 | 0.00 | 0.00 | 81 | 1016.1 |
| 20260906021514 | 25 | 108 | 1.6 | 4.8 | 0.00 | 0.00 | 0.00 | 80 | 1016.1 |
| 20260906020022 | 25 | 134 | 1.6 | 6.4 | 0.00 | 0.00 | 0.00 | 80 | 1015.7 |
| 20260906014526 | 25 | 126 | 3.2 | 4.8 | 0.00 | 0.00 | 0.00 | 78 | 1015.6 |
| 20260906013005 | 26 | 130 | 3.2 | 11.3 | 0.00 | 0.00 | 0.00 | 76 | 1015.4 |
| 20260906011510 | 26 | 124 | 4.8 | 9.7 | 0.00 | 0.00 | 0.00 | 75 | 1015.1 |
| 20260906010014 | 26 | 141 | 4.8 | 11.3 | 0.00 | 0.00 | 0.00 | 73 | 1015.1 |
| 20260906004518 | 27 | 146 | 9.7 | 16.1 | 0.00 | 0.00 | 0.00 | 71 | 1015.0 |
| 20260906003020 | 28 | 140 | 9.7 | 17.7 | 0.00 | 0.00 | 0.00 | 69 | 1015.0 |
| 20260906001506 | 29 | 152 | 11.3 | 19.3 | 0.00 | 0.00 | 0.00 | 68 | 1015.3 |
| 20260906000011 | 30 | 141 | 14.5 | 22.5 | 0.00 | 0.00 | 0.00 | 65 | 1015.5 |
| 20260905234518 | 30 | 157 | 12.9 | 25.7 | 0.00 | 0.00 | 0.00 | 63 | 1015.6 |
| 20260905233023 | 30 | 132 | 12.9 | 22.5 | 0.00 | 0.00 | 0.00 | 62 | 1015.9 |
| 20260905231527 | 31 | 132 | 11.3 | 17.7 | 0.00 | 0.00 | 0.00 | 63 | 1015.7 |
| 20260905230008 | 31 | 135 | 11.3 | 20.9 | 0.00 | 0.00 | 0.00 | 62 | 1015.7 |
| 20260905224514 | 31 | 188 | 14.5 | 24.1 | 0.00 | 0.00 | 0.00 | 63 | 1015.9 |
| 20260905223020 | 31 | 129 | 16.1 | 27.4 | 0.00 | 0.00 | 0.00 | 63 | 1015.7 |
| 20260905221527 | 31 | 126 | 16.1 | 29.0 | 0.00 | 0.00 | 0.00 | 64 | 1015.7 |
| 20260905220030 | 31 | 148 | 16.1 | 30.6 | 0.00 | 0.00 | 0.00 | 63 | 1015.7 |
| 20260905214516 | 31 | 138 | 16.1 | 30.6 | 0.00 | 0.00 | 0.00 | 63 | 1015.8 |
| 20260905213020 | 31 | 152 | 14.5 | 29.0 | 0.00 | 0.00 | 0.00 | 60 | 1016.0 |
| 20260905211523 | 31 | 142 | 16.1 | 35.4 | 0.00 | 0.00 | 0.00 | 62 | 1016.1 |
| 20260905210042 | 31 | 177 | 16.1 | 32.2 | 0.00 | 0.00 | 0.00 | 61 | 1016.2 |
| 20260905204534 | 31 | 135 | 20.9 | 37.0 | 0.00 | 0.00 | 0.00 | 59 | 1016.4 |
| 20260905203014 | 31 | 141 | 22.5 | 40.2 | 0.00 | 0.00 | 0.00 | 60 | 1016.3 |
| 20260905201521 | 31 | 134 | 24.1 | 37.0 | 0.00 | 0.00 | 0.00 | 60 | 1016.5 |